sensor_id;sensor_type;location;lat;lon;timestamp;P1;durP1;ratioP1;P2;durP2;ratioP2
13832;SDS011;6987;19.472;-99.276;2024-01-10T00:00:44;4.90;;;1.75;;
13832;SDS011;6987;19.472;-99.276;2024-01-10T00:03:14;6.40;;;1.60;;
13832;SDS011;6987;19.472;-99.276;2024-01-10T00:05:43;4.70;;;1.90;;
13832;SDS011;6987;19.472;-99.276;2024-01-10T00:08:12;2.35;;;1.38;;
13832;SDS011;6987;19.472;-99.276;2024-01-10T00:10:41;3.10;;;1.70;;
13832;SDS011;6987;19.472;-99.276;2024-01-10T00:13:10;4.05;;;2.15;;
13832;SDS011;6987;19.472;-99.276;2024-01-10T00:15:39;6.93;;;2.50;;
13832;SDS011;6987;19.472;-99.276;2024-01-10T00:18:08;4.22;;;2.63;;
13832;SDS011;6987;19.472;-99.276;2024-01-10T00:20:38;5.10;;;3.00;;
13832;SDS011;6987;19.472;-99.276;2024-01-10T00:23:07;4.70;;;2.70;;
13832;SDS011;6987;19.472;-99.276;2024-01-10T00:25:36;2.95;;;2.75;;
13832;SDS011;6987;19.472;-99.276;2024-01-10T00:28:06;6.75;;;4.03;;
13832;SDS011;6987;19.472;-99.276;2024-01-10T00:30:35;9.68;;;4.50;;
13832;SDS011;6987;19.472;-99.276;2024-01-10T00:33:04;14.77;;;4.93;;
13832;SDS011;6987;19.472;-99.276;2024-01-10T00:35:33;27.50;;;4.80;;
13832;SDS011;6987;19.472;-99.276;2024-01-10T00:38:04;18.85;;;5.80;;
13832;SDS011;6987;19.472;-99.276;2024-01-10T00:40:34;33.38;;;7.35;;
13832;SDS011;6987;19.472;-99.276;2024-01-10T00:43:03;16.08;;;5.65;;
13832;SDS011;6987;19.472;-99.276;2024-01-10T00:45:32;23.83;;;9.20;;
13832;SDS011;6987;19.472;-99.276;2024-01-10T00:48:01;19.85;;;7.80;;
13832;SDS011;6987;19.472;-99.276;2024-01-10T00:50:30;26.95;;;8.43;;
13832;SDS011;6987;19.472;-99.276;2024-01-10T00:53:00;19.73;;;7.32;;
13832;SDS011;6987;19.472;-99.276;2024-01-10T00:55:31;21.40;;;6.95;;
13832;SDS011;6987;19.472;-99.276;2024-01-10T00:57:59;19.02;;;6.70;;
13832;SDS011;6987;19.472;-99.276;2024-01-10T01:00:28;21.92;;;5.90;;
13832;SDS011;6987;19.472;-99.276;2024-01-10T01:02:57;19.23;;;6.20;;
13832;SDS011;6987;19.472;-99.276;2024-01-10T01:05:26;15.68;;;6.15;;
13832;SDS011;6987;19.472;-99.276;2024-01-10T01:07:55;21.85;;;6.63;;
13832;SDS011;6987;19.472;-99.276;2024-01-10T01:10:23;17.38;;;6.07;;
13832;SDS011;6987;19.472;-99.276;2024-01-10T01:12:54;22.95;;;6.93;;
13832;SDS011;6987;19.472;-99.276;2024-01-10T01:15:22;14.95;;;5.22;;
13832;SDS011;6987;19.472;-99.276;2024-01-10T01:17:52;16.25;;;5.38;;
13832;SDS011;6987;19.472;-99.276;2024-01-10T01:20:21;16.10;;;6.07;;
13832;SDS011;6987;19.472;-99.276;2024-01-10T01:22:50;12.15;;;4.97;;
13832;SDS011;6987;19.472;-99.276;2024-01-10T01:25:18;12.98;;;4.38;;
13832;SDS011;6987;19.472;-99.276;2024-01-10T01:27:48;22.45;;;5.72;;
13832;SDS011;6987;19.472;-99.276;2024-01-10T01:30:19;17.63;;;6.15;;
13832;SDS011;6987;19.472;-99.276;2024-01-10T01:32:49;15.07;;;5.65;;
13832;SDS011;6987;19.472;-99.276;2024-01-10T01:35:18;9.45;;;5.30;;
13832;SDS011;6987;19.472;-99.276;2024-01-10T01:37:48;18.10;;;6.35;;
13832;SDS011;6987;19.472;-99.276;2024-01-10T01:40:18;19.50;;;5.95;;
13832;SDS011;6987;19.472;-99.276;2024-01-10T01:42:46;19.55;;;5.88;;
13832;SDS011;6987;19.472;-99.276;2024-01-10T01:45:15;15.20;;;6.55;;
13832;SDS011;6987;19.472;-99.276;2024-01-10T01:47:47;20.70;;;7.05;;
13832;SDS011;6987;19.472;-99.276;2024-01-10T01:50:16;23.02;;;8.00;;
13832;SDS011;6987;19.472;-99.276;2024-01-10T01:52:45;15.48;;;7.53;;
13832;SDS011;6987;19.472;-99.276;2024-01-10T01:55:14;20.50;;;7.72;;
13832;SDS011;6987;19.472;-99.276;2024-01-10T01:57:44;20.65;;;6.90;;
13832;SDS011;6987;19.472;-99.276;2024-01-10T02:00:13;22.70;;;6.18;;
13832;SDS011;6987;19.472;-99.276;2024-01-10T02:02:42;14.10;;;6.07;;
13832;SDS011;6987;19.472;-99.276;2024-01-10T02:05:14;21.25;;;6.93;;
13832;SDS011;6987;19.472;-99.276;2024-01-10T02:07:43;15.57;;;6.57;;
13832;SDS011;6987;19.472;-99.276;2024-01-10T02:10:12;12.65;;;6.55;;
13832;SDS011;6987;19.472;-99.276;2024-01-10T02:12:41;21.95;;;5.80;;
13832;SDS011;6987;19.472;-99.276;2024-01-10T02:15:10;11.13;;;5.57;;
13832;SDS011;6987;19.472;-99.276;2024-01-10T02:17:39;16.75;;;6.53;;
13832;SDS011;6987;19.472;-99.276;2024-01-10T02:20:08;16.65;;;5.68;;
13832;SDS011;6987;19.472;-99.276;2024-01-10T02:22:39;12.65;;;4.95;;
13832;SDS011;6987;19.472;-99.276;2024-01-10T02:25:10;13.48;;;5.22;;
13832;SDS011;6987;19.472;-99.276;2024-01-10T02:27:40;11.07;;;4.82;;
13832;SDS011;6987;19.472;-99.276;2024-01-10T02:30:09;8.95;;;5.68;;
13832;SDS011;6987;19.472;-99.276;2024-01-10T02:32:38;14.27;;;5.35;;
13832;SDS011;6987;19.472;-99.276;2024-01-10T02:35:07;11.50;;;5.47;;
13832;SDS011;6987;19.472;-99.276;2024-01-10T02:37:36;15.13;;;5.15;;
13832;SDS011;6987;19.472;-99.276;2024-01-10T02:40:05;8.68;;;5.43;;
13832;SDS011;6987;19.472;-99.276;2024-01-10T02:42:36;13.35;;;5.22;;
13832;SDS011;6987;19.472;-99.276;2024-01-10T02:45:05;10.38;;;4.80;;
13832;SDS011;6987;19.472;-99.276;2024-01-10T02:47:34;8.65;;;5.53;;
13832;SDS011;6987;19.472;-99.276;2024-01-10T02:50:05;12.73;;;5.53;;
13832;SDS011;6987;19.472;-99.276;2024-01-10T02:52:35;20.10;;;5.50;;
13832;SDS011;6987;19.472;-99.276;2024-01-10T02:55:05;15.93;;;5.55;;
13832;SDS011;6987;19.472;-99.276;2024-01-10T02:57:33;21.20;;;5.57;;
13832;SDS011;6987;19.472;-99.276;2024-01-10T03:00:04;12.15;;;4.93;;
13832;SDS011;6987;19.472;-99.276;2024-01-10T03:02:33;13.32;;;5.43;;
13832;SDS011;6987;19.472;-99.276;2024-01-10T03:05:03;14.82;;;5.13;;
13832;SDS011;6987;19.472;-99.276;2024-01-10T03:07:31;12.50;;;5.13;;
13832;SDS011;6987;19.472;-99.276;2024-01-10T03:10:00;15.02;;;5.50;;
13832;SDS011;6987;19.472;-99.276;2024-01-10T03:12:29;13.85;;;5.40;;
13832;SDS011;6987;19.472;-99.276;2024-01-10T03:14:58;13.55;;;4.63;;
13832;SDS011;6987;19.472;-99.276;2024-01-10T03:17:28;16.60;;;5.32;;
13832;SDS011;6987;19.472;-99.276;2024-01-10T03:19:59;11.98;;;5.55;;
13832;SDS011;6987;19.472;-99.276;2024-01-10T03:22:28;14.35;;;5.60;;
13832;SDS011;6987;19.472;-99.276;2024-01-10T03:24:57;21.45;;;6.38;;
13832;SDS011;6987;19.472;-99.276;2024-01-10T03:27:26;23.67;;;6.15;;
13832;SDS011;6987;19.472;-99.276;2024-01-10T03:29:56;23.17;;;6.65;;
13832;SDS011;6987;19.472;-99.276;2024-01-10T03:32:25;25.42;;;5.85;;
13832;SDS011;6987;19.472;-99.276;2024-01-10T03:34:56;25.10;;;6.60;;
13832;SDS011;6987;19.472;-99.276;2024-01-10T03:37:26;14.15;;;6.07;;
13832;SDS011;6987;19.472;-99.276;2024-01-10T03:39:54;18.05;;;6.00;;
13832;SDS011;6987;19.472;-99.276;2024-01-10T03:42:25;15.32;;;6.18;;
13832;SDS011;6987;19.472;-99.276;2024-01-10T03:44:54;8.75;;;6.15;;
13832;SDS011;6987;19.472;-99.276;2024-01-10T03:47:22;15.82;;;5.55;;
13832;SDS011;6987;19.472;-99.276;2024-01-10T03:49:51;16.58;;;6.35;;
13832;SDS011;6987;19.472;-99.276;2024-01-10T03:52:21;10.00;;;5.82;;
13832;SDS011;6987;19.472;-99.276;2024-01-10T03:54:50;12.60;;;6.32;;
13832;SDS011;6987;19.472;-99.276;2024-01-10T03:57:19;12.70;;;5.60;;
13832;SDS011;6987;19.472;-99.276;2024-01-10T03:59:48;8.43;;;5.93;;
13832;SDS011;6987;19.472;-99.276;2024-01-10T04:02:17;13.48;;;6.15;;
13832;SDS011;6987;19.472;-99.276;2024-01-10T04:04:46;7.28;;;5.45;;
13832;SDS011;6987;19.472;-99.276;2024-01-10T04:07:15;12.80;;;6.00;;
13832;SDS011;6987;19.472;-99.276;2024-01-10T04:09:46;9.93;;;5.75;;
13832;SDS011;6987;19.472;-99.276;2024-01-10T04:12:14;11.70;;;5.57;;
13832;SDS011;6987;19.472;-99.276;2024-01-10T04:14:44;6.25;;;5.45;;
13832;SDS011;6987;19.472;-99.276;2024-01-10T04:17:13;9.35;;;5.43;;
13832;SDS011;6987;19.472;-99.276;2024-01-10T04:19:42;19.48;;;5.60;;
13832;SDS011;6987;19.472;-99.276;2024-01-10T04:22:10;11.25;;;5.18;;
13832;SDS011;6987;19.472;-99.276;2024-01-10T04:24:40;6.60;;;5.13;;
13832;SDS011;6987;19.472;-99.276;2024-01-10T04:27:10;11.85;;;4.95;;
13832;SDS011;6987;19.472;-99.276;2024-01-10T04:29:39;11.80;;;5.50;;
13832;SDS011;6987;19.472;-99.276;2024-01-10T04:32:08;11.95;;;5.13;;
13832;SDS011;6987;19.472;-99.276;2024-01-10T04:34:37;8.50;;;5.20;;
13832;SDS011;6987;19.472;-99.276;2024-01-10T04:37:06;15.43;;;5.53;;
13832;SDS011;6987;19.472;-99.276;2024-01-10T04:39:35;15.43;;;5.30;;
13832;SDS011;6987;19.472;-99.276;2024-01-10T04:42:06;13.35;;;4.93;;
13832;SDS011;6987;19.472;-99.276;2024-01-10T04:44:37;7.55;;;4.97;;
13832;SDS011;6987;19.472;-99.276;2024-01-10T04:47:06;11.48;;;4.80;;
13832;SDS011;6987;19.472;-99.276;2024-01-10T04:49:35;8.85;;;4.55;;
13832;SDS011;6987;19.472;-99.276;2024-01-10T04:52:04;7.68;;;4.97;;
13832;SDS011;6987;19.472;-99.276;2024-01-10T04:54:33;9.48;;;5.00;;
13832;SDS011;6987;19.472;-99.276;2024-01-10T04:57:02;9.45;;;4.85;;
13832;SDS011;6987;19.472;-99.276;2024-01-10T04:59:33;8.63;;;4.93;;
13832;SDS011;6987;19.472;-99.276;2024-01-10T05:02:03;9.65;;;4.68;;
13832;SDS011;6987;19.472;-99.276;2024-01-10T05:04:32;7.85;;;4.60;;
13832;SDS011;6987;19.472;-99.276;2024-01-10T05:07:01;7.40;;;4.78;;
13832;SDS011;6987;19.472;-99.276;2024-01-10T05:09:30;9.68;;;4.55;;
13832;SDS011;6987;19.472;-99.276;2024-01-10T05:11:59;8.70;;;4.78;;
13832;SDS011;6987;19.472;-99.276;2024-01-10T05:14:27;6.63;;;4.80;;
13832;SDS011;6987;19.472;-99.276;2024-01-10T05:16:56;10.77;;;4.13;;
13832;SDS011;6987;19.472;-99.276;2024-01-10T05:19:27;7.05;;;4.38;;
13832;SDS011;6987;19.472;-99.276;2024-01-10T05:21:56;7.88;;;4.65;;
13832;SDS011;6987;19.472;-99.276;2024-01-10T05:24:25;9.05;;;4.97;;
13832;SDS011;6987;19.472;-99.276;2024-01-10T05:26:54;11.07;;;5.22;;
13832;SDS011;6987;19.472;-99.276;2024-01-10T05:29:23;8.88;;;4.60;;
13832;SDS011;6987;19.472;-99.276;2024-01-10T05:31:53;5.00;;;4.50;;
13832;SDS011;6987;19.472;-99.276;2024-01-10T05:34:21;14.65;;;5.28;;
13832;SDS011;6987;19.472;-99.276;2024-01-10T05:36:52;10.00;;;5.13;;
13832;SDS011;6987;19.472;-99.276;2024-01-10T05:39:21;11.93;;;5.05;;
13832;SDS011;6987;19.472;-99.276;2024-01-10T05:41:50;5.65;;;4.32;;
13832;SDS011;6987;19.472;-99.276;2024-01-10T05:44:18;9.55;;;4.53;;
13832;SDS011;6987;19.472;-99.276;2024-01-10T05:46:47;5.15;;;4.65;;
13832;SDS011;6987;19.472;-99.276;2024-01-10T05:49:17;6.93;;;4.68;;
13832;SDS011;6987;19.472;-99.276;2024-01-10T05:51:47;7.28;;;4.53;;
13832;SDS011;6987;19.472;-99.276;2024-01-10T05:54:18;11.25;;;4.63;;
13832;SDS011;6987;19.472;-99.276;2024-01-10T05:56:46;7.05;;;5.00;;
13832;SDS011;6987;19.472;-99.276;2024-01-10T05:59:16;5.72;;;4.47;;
13832;SDS011;6987;19.472;-99.276;2024-01-10T06:01:45;6.32;;;4.93;;
13832;SDS011;6987;19.472;-99.276;2024-01-10T06:04:13;6.40;;;4.55;;
13832;SDS011;6987;19.472;-99.276;2024-01-10T06:06:43;7.13;;;4.53;;
13832;SDS011;6987;19.472;-99.276;2024-01-10T06:09:11;5.00;;;4.50;;
13832;SDS011;6987;19.472;-99.276;2024-01-10T06:11:43;4.75;;;4.28;;
13832;SDS011;6987;19.472;-99.276;2024-01-10T06:14:12;10.10;;;4.40;;
13832;SDS011;6987;19.472;-99.276;2024-01-10T06:16:41;9.13;;;4.55;;
13832;SDS011;6987;19.472;-99.276;2024-01-10T06:19:10;7.07;;;4.68;;
13832;SDS011;6987;19.472;-99.276;2024-01-10T06:21:39;6.53;;;4.85;;
13832;SDS011;6987;19.472;-99.276;2024-01-10T06:24:08;7.63;;;4.38;;
13832;SDS011;6987;19.472;-99.276;2024-01-10T06:26:36;6.57;;;4.10;;
13832;SDS011;6987;19.472;-99.276;2024-01-10T06:29:07;12.00;;;4.78;;
13832;SDS011;6987;19.472;-99.276;2024-01-10T06:31:36;7.47;;;4.18;;
13832;SDS011;6987;19.472;-99.276;2024-01-10T06:34:04;4.70;;;4.03;;
13832;SDS011;6987;19.472;-99.276;2024-01-10T06:36:34;8.05;;;4.10;;
13832;SDS011;6987;19.472;-99.276;2024-01-10T06:39:02;7.47;;;4.40;;
13832;SDS011;6987;19.472;-99.276;2024-01-10T06:41:32;5.95;;;4.10;;
13832;SDS011;6987;19.472;-99.276;2024-01-10T06:44:03;5.70;;;4.13;;
13832;SDS011;6987;19.472;-99.276;2024-01-10T06:46:34;4.18;;;3.85;;
13832;SDS011;6987;19.472;-99.276;2024-01-10T06:49:03;4.85;;;4.38;;
13832;SDS011;6987;19.472;-99.276;2024-01-10T06:51:33;5.63;;;3.75;;
13832;SDS011;6987;19.472;-99.276;2024-01-10T06:54:04;7.38;;;4.95;;
13832;SDS011;6987;19.472;-99.276;2024-01-10T06:56:34;5.03;;;4.07;;
13832;SDS011;6987;19.472;-99.276;2024-01-10T06:59:03;5.70;;;3.78;;
13832;SDS011;6987;19.472;-99.276;2024-01-10T07:01:34;5.55;;;4.45;;
13832;SDS011;6987;19.472;-99.276;2024-01-10T07:04:05;6.30;;;4.25;;
13832;SDS011;6987;19.472;-99.276;2024-01-10T07:06:34;5.95;;;4.10;;
13832;SDS011;6987;19.472;-99.276;2024-01-10T07:09:03;5.93;;;4.38;;
13832;SDS011;6987;19.472;-99.276;2024-01-10T07:11:33;5.80;;;4.60;;
13832;SDS011;6987;19.472;-99.276;2024-01-10T07:14:01;4.68;;;4.00;;
13832;SDS011;6987;19.472;-99.276;2024-01-10T07:16:31;7.55;;;4.10;;
13832;SDS011;6987;19.472;-99.276;2024-01-10T07:19:01;12.85;;;4.43;;
13832;SDS011;6987;19.472;-99.276;2024-01-10T07:21:30;9.32;;;4.15;;
13832;SDS011;6987;19.472;-99.276;2024-01-10T07:23:59;5.07;;;4.53;;
13832;SDS011;6987;19.472;-99.276;2024-01-10T07:26:29;4.50;;;4.03;;
13832;SDS011;6987;19.472;-99.276;2024-01-10T07:28:58;4.13;;;3.67;;
13832;SDS011;6987;19.472;-99.276;2024-01-10T07:31:28;7.70;;;4.32;;
13832;SDS011;6987;19.472;-99.276;2024-01-10T07:33:57;6.55;;;3.72;;
13832;SDS011;6987;19.472;-99.276;2024-01-10T07:36:27;5.30;;;3.75;;
13832;SDS011;6987;19.472;-99.276;2024-01-10T07:38:59;4.22;;;3.85;;
13832;SDS011;6987;19.472;-99.276;2024-01-10T07:41:27;6.88;;;4.00;;
13832;SDS011;6987;19.472;-99.276;2024-01-10T07:43:56;5.63;;;4.47;;
13832;SDS011;6987;19.472;-99.276;2024-01-10T07:46:25;4.32;;;3.92;;
13832;SDS011;6987;19.472;-99.276;2024-01-10T07:48:54;6.68;;;4.03;;
13832;SDS011;6987;19.472;-99.276;2024-01-10T07:51:23;6.25;;;3.70;;
13832;SDS011;6987;19.472;-99.276;2024-01-10T07:53:54;6.30;;;4.35;;
13832;SDS011;6987;19.472;-99.276;2024-01-10T07:56:23;5.65;;;4.07;;
13832;SDS011;6987;19.472;-99.276;2024-01-10T07:58:51;5.57;;;3.25;;
13832;SDS011;6987;19.472;-99.276;2024-01-10T08:01:20;6.63;;;3.85;;
13832;SDS011;6987;19.472;-99.276;2024-01-10T08:03:50;5.35;;;3.85;;
13832;SDS011;6987;19.472;-99.276;2024-01-10T08:06:18;4.15;;;3.80;;
13832;SDS011;6987;19.472;-99.276;2024-01-10T08:08:48;4.80;;;3.25;;
13832;SDS011;6987;19.472;-99.276;2024-01-10T08:11:18;5.05;;;4.03;;
13832;SDS011;6987;19.472;-99.276;2024-01-10T08:13:47;6.28;;;3.83;;
13832;SDS011;6987;19.472;-99.276;2024-01-10T08:16:17;6.57;;;3.55;;
13832;SDS011;6987;19.472;-99.276;2024-01-10T08:18:45;4.30;;;3.17;;
13832;SDS011;6987;19.472;-99.276;2024-01-10T08:21:14;5.70;;;3.83;;
13832;SDS011;6987;19.472;-99.276;2024-01-10T08:23:43;4.65;;;3.33;;
13832;SDS011;6987;19.472;-99.276;2024-01-10T08:26:12;4.18;;;3.58;;
13832;SDS011;6987;19.472;-99.276;2024-01-10T08:28:43;3.33;;;2.90;;
13832;SDS011;6987;19.472;-99.276;2024-01-10T08:31:11;6.25;;;3.42;;
13832;SDS011;6987;19.472;-99.276;2024-01-10T08:33:40;4.78;;;3.17;;
13832;SDS011;6987;19.472;-99.276;2024-01-10T08:36:09;7.63;;;3.50;;
13832;SDS011;6987;19.472;-99.276;2024-01-10T08:38:38;3.63;;;3.33;;
13832;SDS011;6987;19.472;-99.276;2024-01-10T08:41:07;3.75;;;3.45;;
13832;SDS011;6987;19.472;-99.276;2024-01-10T08:43:37;3.70;;;3.30;;
13832;SDS011;6987;19.472;-99.276;2024-01-10T08:46:09;5.22;;;3.17;;
13832;SDS011;6987;19.472;-99.276;2024-01-10T08:48:39;3.38;;;3.08;;
13832;SDS011;6987;19.472;-99.276;2024-01-10T08:51:08;5.30;;;2.78;;
13832;SDS011;6987;19.472;-99.276;2024-01-10T08:53:38;5.80;;;3.10;;
13832;SDS011;6987;19.472;-99.276;2024-01-10T08:56:07;3.53;;;3.20;;
13832;SDS011;6987;19.472;-99.276;2024-01-10T08:58:36;3.40;;;3.10;;
13832;SDS011;6987;19.472;-99.276;2024-01-10T09:01:05;3.78;;;2.92;;
13832;SDS011;6987;19.472;-99.276;2024-01-10T09:03:37;3.42;;;2.88;;
13832;SDS011;6987;19.472;-99.276;2024-01-10T09:06:06;3.15;;;2.75;;
13832;SDS011;6987;19.472;-99.276;2024-01-10T09:08:35;3.33;;;2.50;;
13832;SDS011;6987;19.472;-99.276;2024-01-10T09:11:05;4.65;;;2.63;;
13832;SDS011;6987;19.472;-99.276;2024-01-10T09:13:34;3.80;;;3.38;;
13832;SDS011;6987;19.472;-99.276;2024-01-10T09:16:04;4.15;;;2.97;;
13832;SDS011;6987;19.472;-99.276;2024-01-10T09:18:32;3.00;;;2.60;;
13832;SDS011;6987;19.472;-99.276;2024-01-10T09:21:03;3.20;;;2.70;;
13832;SDS011;6987;19.472;-99.276;2024-01-10T09:23:33;4.15;;;2.65;;
13832;SDS011;6987;19.472;-99.276;2024-01-10T09:26:02;2.70;;;2.50;;
13832;SDS011;6987;19.472;-99.276;2024-01-10T09:28:32;2.83;;;2.50;;
13832;SDS011;6987;19.472;-99.276;2024-01-10T09:31:00;3.13;;;2.72;;
13832;SDS011;6987;19.472;-99.276;2024-01-10T09:33:29;2.53;;;2.40;;
13832;SDS011;6987;19.472;-99.276;2024-01-10T09:35:58;3.10;;;2.80;;
13832;SDS011;6987;19.472;-99.276;2024-01-10T09:38:29;4.15;;;2.80;;
13832;SDS011;6987;19.472;-99.276;2024-01-10T09:40:59;6.47;;;3.00;;
13832;SDS011;6987;19.472;-99.276;2024-01-10T09:43:30;3.38;;;2.40;;
13832;SDS011;6987;19.472;-99.276;2024-01-10T09:45:59;3.85;;;2.95;;
13832;SDS011;6987;19.472;-99.276;2024-01-10T09:48:29;4.07;;;3.10;;
13832;SDS011;6987;19.472;-99.276;2024-01-10T09:50:58;4.10;;;2.70;;
13832;SDS011;6987;19.472;-99.276;2024-01-10T09:53:29;4.90;;;2.83;;
13832;SDS011;6987;19.472;-99.276;2024-01-10T09:55:59;2.80;;;2.60;;
13832;SDS011;6987;19.472;-99.276;2024-01-10T09:58:28;4.55;;;2.80;;
13832;SDS011;6987;19.472;-99.276;2024-01-10T10:00:59;2.90;;;2.70;;
13832;SDS011;6987;19.472;-99.276;2024-01-10T10:03:30;3.13;;;2.83;;
13832;SDS011;6987;19.472;-99.276;2024-01-10T10:05:59;3.58;;;2.55;;
13832;SDS011;6987;19.472;-99.276;2024-01-10T10:08:30;2.58;;;2.40;;
13832;SDS011;6987;19.472;-99.276;2024-01-10T10:10:58;3.20;;;2.80;;
13832;SDS011;6987;19.472;-99.276;2024-01-10T10:13:28;3.10;;;2.80;;
13832;SDS011;6987;19.472;-99.276;2024-01-10T10:15:58;3.17;;;2.97;;
13832;SDS011;6987;19.472;-99.276;2024-01-10T10:18:27;3.08;;;2.88;;
13832;SDS011;6987;19.472;-99.276;2024-01-10T10:21:08;4.68;;;3.08;;
13832;SDS011;6987;19.472;-99.276;2024-01-10T10:23:39;10.02;;;3.45;;
13832;SDS011;6987;19.472;-99.276;2024-01-10T10:26:13;4.95;;;3.42;;
13832;SDS011;6987;19.472;-99.276;2024-01-10T10:28:46;4.57;;;3.10;;
13832;SDS011;6987;19.472;-99.276;2024-01-10T10:31:15;3.28;;;2.97;;
13832;SDS011;6987;19.472;-99.276;2024-01-10T10:33:44;5.25;;;3.10;;
13832;SDS011;6987;19.472;-99.276;2024-01-10T10:36:14;6.22;;;3.60;;
13832;SDS011;6987;19.472;-99.276;2024-01-10T10:38:45;4.85;;;4.20;;
13832;SDS011;6987;19.472;-99.276;2024-01-10T10:41:15;4.25;;;3.95;;
13832;SDS011;6987;19.472;-99.276;2024-01-10T10:43:44;3.88;;;3.50;;
13832;SDS011;6987;19.472;-99.276;2024-01-10T10:46:13;5.07;;;3.70;;
13832;SDS011;6987;19.472;-99.276;2024-01-10T10:48:42;4.75;;;4.28;;
13832;SDS011;6987;19.472;-99.276;2024-01-10T10:51:12;4.30;;;4.00;;
13832;SDS011;6987;19.472;-99.276;2024-01-10T10:53:45;6.00;;;4.18;;
13832;SDS011;6987;19.472;-99.276;2024-01-10T10:56:16;6.55;;;4.40;;
13832;SDS011;6987;19.472;-99.276;2024-01-10T10:58:46;6.85;;;4.47;;
13832;SDS011;6987;19.472;-99.276;2024-01-10T11:01:15;6.70;;;4.50;;
13832;SDS011;6987;19.472;-99.276;2024-01-10T11:03:44;8.27;;;4.47;;
13832;SDS011;6987;19.472;-99.276;2024-01-10T11:06:14;9.23;;;4.53;;
13832;SDS011;6987;19.472;-99.276;2024-01-10T11:08:45;6.53;;;4.40;;
13832;SDS011;6987;19.472;-99.276;2024-01-10T11:11:17;8.30;;;4.38;;
13832;SDS011;6987;19.472;-99.276;2024-01-10T11:13:54;13.82;;;4.40;;
13832;SDS011;6987;19.472;-99.276;2024-01-10T11:16:39;6.07;;;4.53;;
13832;SDS011;6987;19.472;-99.276;2024-01-10T11:19:18;13.00;;;4.72;;
13832;SDS011;6987;19.472;-99.276;2024-01-10T11:21:55;8.32;;;4.47;;
13832;SDS011;6987;19.472;-99.276;2024-01-10T11:24:28;6.88;;;4.60;;
13832;SDS011;6987;19.472;-99.276;2024-01-10T11:27:09;10.18;;;5.15;;
13832;SDS011;6987;19.472;-99.276;2024-01-10T11:29:38;12.02;;;4.80;;
13832;SDS011;6987;19.472;-99.276;2024-01-10T11:32:08;8.80;;;4.55;;
13832;SDS011;6987;19.472;-99.276;2024-01-10T11:34:49;9.40;;;4.57;;
13832;SDS011;6987;19.472;-99.276;2024-01-10T11:37:18;9.68;;;4.53;;
13832;SDS011;6987;19.472;-99.276;2024-01-10T11:39:50;13.70;;;5.05;;
13832;SDS011;6987;19.472;-99.276;2024-01-10T11:42:23;8.07;;;4.63;;
13832;SDS011;6987;19.472;-99.276;2024-01-10T11:44:52;10.05;;;4.72;;
13832;SDS011;6987;19.472;-99.276;2024-01-10T11:47:23;11.30;;;4.82;;
13832;SDS011;6987;19.472;-99.276;2024-01-10T11:49:56;8.85;;;4.13;;
13832;SDS011;6987;19.472;-99.276;2024-01-10T11:52:32;9.65;;;4.47;;
13832;SDS011;6987;19.472;-99.276;2024-01-10T11:55:02;5.13;;;4.63;;
13832;SDS011;6987;19.472;-99.276;2024-01-10T11:57:33;10.32;;;4.75;;
13832;SDS011;6987;19.472;-99.276;2024-01-10T12:00:03;10.73;;;5.10;;
13832;SDS011;6987;19.472;-99.276;2024-01-10T12:02:37;9.77;;;4.93;;
13832;SDS011;6987;19.472;-99.276;2024-01-10T12:05:07;11.07;;;4.60;;
13832;SDS011;6987;19.472;-99.276;2024-01-10T12:07:37;10.63;;;4.63;;
13832;SDS011;6987;19.472;-99.276;2024-01-10T12:10:08;7.93;;;4.63;;
13832;SDS011;6987;19.472;-99.276;2024-01-10T12:12:37;13.63;;;4.93;;
13832;SDS011;6987;19.472;-99.276;2024-01-10T12:15:06;14.68;;;5.32;;
13832;SDS011;6987;19.472;-99.276;2024-01-10T12:17:36;8.82;;;5.05;;
13832;SDS011;6987;19.472;-99.276;2024-01-10T12:20:06;7.85;;;5.38;;
13832;SDS011;6987;19.472;-99.276;2024-01-10T12:22:35;15.55;;;5.38;;
13832;SDS011;6987;19.472;-99.276;2024-01-10T12:25:04;10.70;;;5.20;;
13832;SDS011;6987;19.472;-99.276;2024-01-10T12:27:36;10.05;;;5.57;;
13832;SDS011;6987;19.472;-99.276;2024-01-10T12:30:06;8.65;;;5.45;;
13832;SDS011;6987;19.472;-99.276;2024-01-10T12:32:35;19.40;;;6.20;;
13832;SDS011;6987;19.472;-99.276;2024-01-10T12:35:04;12.68;;;5.90;;
13832;SDS011;6987;19.472;-99.276;2024-01-10T12:37:33;19.90;;;6.05;;
13832;SDS011;6987;19.472;-99.276;2024-01-10T12:40:02;18.20;;;5.60;;
13832;SDS011;6987;19.472;-99.276;2024-01-10T12:42:32;25.55;;;6.65;;
13832;SDS011;6987;19.472;-99.276;2024-01-10T12:45:03;13.13;;;5.75;;
13832;SDS011;6987;19.472;-99.276;2024-01-10T12:47:31;13.65;;;5.47;;
13832;SDS011;6987;19.472;-99.276;2024-01-10T12:50:03;5.88;;;5.25;;
13832;SDS011;6987;19.472;-99.276;2024-01-10T12:52:33;9.30;;;5.65;;
13832;SDS011;6987;19.472;-99.276;2024-01-10T12:55:05;14.27;;;5.68;;
13832;SDS011;6987;19.472;-99.276;2024-01-10T12:57:34;11.32;;;5.50;;
13832;SDS011;6987;19.472;-99.276;2024-01-10T13:00:05;9.85;;;5.25;;
13832;SDS011;6987;19.472;-99.276;2024-01-10T13:02:35;14.43;;;5.20;;
13832;SDS011;6987;19.472;-99.276;2024-01-10T13:05:04;12.90;;;4.97;;
13832;SDS011;6987;19.472;-99.276;2024-01-10T13:07:35;9.40;;;5.25;;
13832;SDS011;6987;19.472;-99.276;2024-01-10T13:10:04;17.40;;;6.03;;
13832;SDS011;6987;19.472;-99.276;2024-01-10T13:12:33;13.18;;;5.53;;
13832;SDS011;6987;19.472;-99.276;2024-01-10T13:15:02;11.27;;;4.25;;
13832;SDS011;6987;19.472;-99.276;2024-01-10T13:17:33;6.55;;;4.00;;
13832;SDS011;6987;19.472;-99.276;2024-01-10T13:20:03;12.15;;;6.13;;
13832;SDS011;6987;19.472;-99.276;2024-01-10T13:22:35;20.15;;;5.25;;
13832;SDS011;6987;19.472;-99.276;2024-01-10T13:25:04;10.32;;;4.50;;
13832;SDS011;6987;19.472;-99.276;2024-01-10T13:27:33;18.20;;;6.05;;
13832;SDS011;6987;19.472;-99.276;2024-01-10T13:30:02;14.43;;;5.30;;
13832;SDS011;6987;19.472;-99.276;2024-01-10T13:32:33;18.35;;;4.72;;
13832;SDS011;6987;19.472;-99.276;2024-01-10T13:35:03;15.85;;;4.72;;
13832;SDS011;6987;19.472;-99.276;2024-01-10T13:37:32;16.45;;;4.50;;
13832;SDS011;6987;19.472;-99.276;2024-01-10T13:40:01;16.77;;;5.43;;
13832;SDS011;6987;19.472;-99.276;2024-01-10T13:42:31;14.77;;;4.35;;
13832;SDS011;6987;19.472;-99.276;2024-01-10T13:45:00;13.23;;;4.90;;
13832;SDS011;6987;19.472;-99.276;2024-01-10T13:47:28;32.35;;;6.00;;
13832;SDS011;6987;19.472;-99.276;2024-01-10T13:50:00;22.58;;;6.13;;
13832;SDS011;6987;19.472;-99.276;2024-01-10T13:52:32;23.08;;;6.10;;
13832;SDS011;6987;19.472;-99.276;2024-01-10T13:55:01;19.67;;;4.63;;
13832;SDS011;6987;19.472;-99.276;2024-01-10T13:57:33;35.55;;;6.13;;
13832;SDS011;6987;19.472;-99.276;2024-01-10T14:00:02;19.52;;;5.13;;
13832;SDS011;6987;19.472;-99.276;2024-01-10T14:02:32;18.60;;;4.95;;
13832;SDS011;6987;19.472;-99.276;2024-01-10T14:05:04;18.58;;;4.75;;
13832;SDS011;6987;19.472;-99.276;2024-01-10T14:07:35;8.05;;;3.35;;
13832;SDS011;6987;19.472;-99.276;2024-01-10T14:10:04;13.48;;;4.18;;
13832;SDS011;6987;19.472;-99.276;2024-01-10T14:12:36;10.77;;;4.25;;
13832;SDS011;6987;19.472;-99.276;2024-01-10T14:15:05;19.98;;;3.85;;
13832;SDS011;6987;19.472;-99.276;2024-01-10T14:17:34;20.40;;;3.65;;
13832;SDS011;6987;19.472;-99.276;2024-01-10T14:20:06;6.07;;;2.95;;
13832;SDS011;6987;19.472;-99.276;2024-01-10T14:22:36;16.67;;;3.53;;
13832;SDS011;6987;19.472;-99.276;2024-01-10T14:25:07;9.65;;;3.55;;
13832;SDS011;6987;19.472;-99.276;2024-01-10T14:27:38;13.88;;;6.63;;
13832;SDS011;6987;19.472;-99.276;2024-01-10T14:30:07;14.02;;;5.43;;
13832;SDS011;6987;19.472;-99.276;2024-01-10T14:32:36;8.43;;;4.13;;
13832;SDS011;6987;19.472;-99.276;2024-01-10T14:35:07;3.85;;;2.38;;
13832;SDS011;6987;19.472;-99.276;2024-01-10T14:37:36;4.45;;;2.35;;
13832;SDS011;6987;19.472;-99.276;2024-01-10T14:40:05;4.72;;;2.33;;
13832;SDS011;6987;19.472;-99.276;2024-01-10T14:42:34;6.57;;;1.92;;